Time;durP1;ratioP1;P1;durP2;ratioP2;P2;SDS_P1;SDS_P2;PMS_P1;PMS_P2;Temp;Humidity;BMP_temperature;BMP_pressure;BME280_temperature;BME280_humidity;BME280_pressure;Samples;Min_cycle;Max_cycle;Signal;HPM_P1;HPM_P2
2021/01/08 00:01:45;;;;;;;32.83;20.75;;;3.60;1.00;;;;;;5096242;28;20016;-91
2021/01/08 00:04:11;;;;;;;28.73;19.90;;;3.50;1.00;;;;;;5096196;28;20499;-91
2021/01/08 00:06:36;;;;;;;34.05;20.35;;;3.50;1.00;;;;;;5096403;28;20119;-91
2021/01/08 00:09:03;;;;;;;33.22;20.88;;;3.60;1.00;;;;;;5096092;28;20024;-91
2021/01/08 00:11:28;;;;;;;33.10;21.13;;;3.60;1.00;;;;;;5097258;28;20066;-91
2021/01/08 00:13:54;;;;;;;29.23;19.75;;;3.50;1.00;;;;;;5094350;28;20028;-91
2021/01/08 00:16:20;;;;;;;30.42;19.85;;;3.30;1.00;;;;;;5106088;28;20055;-91
2021/01/08 00:18:46;;;;;;;29.58;18.88;;;3.30;1.00;;;;;;5116151;28;20024;-91
2021/01/08 00:21:13;;;;;;;31.30;19.90;;;3.60;1.00;;;;;;5116534;28;20054;-91
2021/01/08 00:23:39;;;;;;;30.05;20.10;;;3.50;1.00;;;;;;5115892;28;20056;-91
2021/01/08 00:26:04;;;;;;;31.00;21.13;;;3.50;1.00;;;;;;5117056;28;20080;-91
2021/01/08 00:28:30;;;;;;;33.92;21.25;;;3.40;1.00;;;;;;5110699;28;20042;-91
2021/01/08 00:30:56;;;;;;;32.78;20.52;;;3.50;1.00;;;;;;5116092;28;20024;-91
2021/01/08 00:33:21;;;;;;;33.83;20.52;;;3.80;1.00;;;;;;5112310;28;20032;-91
2021/01/08 00:35:47;;;;;;;32.20;20.50;;;3.60;1.00;;;;;;5095859;28;20397;-90
2021/01/08 00:38:13;;;;;;;30.33;19.20;;;3.50;1.00;;;;;;5096269;28;20052;-91
2021/01/08 00:40:39;;;;;;;31.17;19.40;;;3.50;1.00;;;;;;5095438;28;20030;-91
2021/01/08 00:43:05;;;;;;;28.25;19.42;;;3.50;1.00;;;;;;5107523;28;20039;-91
2021/01/08 00:45:31;;;;;;;31.20;19.55;;;3.30;1.00;;;;;;5115878;28;20063;-91
2021/01/08 00:47:57;;;;;;;29.83;19.52;;;3.40;1.00;;;;;;5116132;28;20034;-91
2021/01/08 00:50:23;;;;;;;32.72;20.92;;;3.40;1.00;;;;;;5116035;28;20028;-91
2021/01/08 00:52:48;;;;;;;33.10;20.73;;;3.50;1.00;;;;;;5115585;28;20032;-91
2021/01/08 00:55:14;;;;;;;29.95;19.65;;;3.80;1.00;;;;;;5115751;28;20044;-91
2021/01/08 00:57:40;;;;;;;32.25;19.80;;;3.40;1.00;;;;;;5100548;28;20036;-91
2021/01/08 01:00:08;;;;;;;31.98;20.20;;;3.90;1.00;;;;;;5095224;28;20565;-91
2021/01/08 01:02:34;;;;;;;30.40;19.98;;;3.40;1.00;;;;;;5094967;28;20485;-91
2021/01/08 01:05:01;;;;;;;30.00;19.23;;;3.40;1.00;;;;;;5095047;28;20046;-91
2021/01/08 01:07:26;;;;;;;29.30;19.27;;;3.20;1.00;;;;;;5094878;28;20024;-91
2021/01/08 01:09:52;;;;;;;28.77;19.85;;;3.20;1.00;;;;;;5095150;28;20542;-91
2021/01/08 01:12:18;;;;;;;27.08;18.77;;;3.20;1.00;;;;;;5106248;28;20051;-91
2021/01/08 01:14:44;;;;;;;32.83;19.33;;;3.40;1.00;;;;;;5115263;28;20027;-91
2021/01/08 01:17:10;;;;;;;30.38;20.00;;;3.30;1.00;;;;;;5098894;28;20020;-91
2021/01/08 01:19:36;;;;;;;30.13;20.17;;;3.10;1.00;;;;;;5096047;28;20023;-91
2021/01/08 01:22:01;;;;;;;29.25;19.38;;;3.00;1.00;;;;;;5094388;28;20024;-91
2021/01/08 01:24:27;;;;;;;30.98;20.52;;;3.10;1.00;;;;;;5094551;28;20059;-91
2021/01/08 01:26:55;;;;;;;31.30;20.42;;;3.00;1.00;;;;;;5093992;28;20386;-90
2021/01/08 01:29:22;;;;;;;29.95;19.73;;;3.20;1.00;;;;;;5094584;28;20737;-90
2021/01/08 01:31:47;;;;;;;29.13;19.48;;;3.00;1.00;;;;;;5095936;28;20031;-91
2021/01/08 01:34:13;;;;;;;32.80;21.15;;;2.80;1.00;;;;;;5094398;28;20095;-90
2021/01/08 01:36:39;;;;;;;31.30;19.33;;;2.70;1.00;;;;;;5093933;28;20115;-91
2021/01/08 01:39:05;;;;;;;43.25;24.92;;;3.00;1.00;;;;;;5094105;28;20397;-91
2021/01/08 01:41:30;;;;;;;48.72;27.65;;;2.50;1.00;;;;;;5093866;28;20032;-91
2021/01/08 01:43:56;;;;;;;49.17;27.45;;;2.50;1.00;;;;;;5094387;28;20029;-91
2021/01/08 01:46:22;;;;;;;45.35;25.25;;;2.40;1.00;;;;;;5094158;28;20032;-91
2021/01/08 01:48:52;;;;;;;29.75;19.38;;;2.40;1.00;;;;;;5094267;28;20056;-90
2021/01/08 01:51:20;;;;;;;30.88;19.88;;;2.60;1.00;;;;;;5093721;28;20039;-91
2021/01/08 01:53:47;;;;;;;31.45;20.35;;;2.50;1.00;;;;;;5092829;28;20499;-91
2021/01/08 01:56:13;;;;;;;31.45;20.70;;;2.50;1.00;;;;;;5093946;28;20028;-91
2021/01/08 01:58:38;;;;;;;31.02;20.15;;;2.50;1.00;;;;;;5093735;28;20110;-91
2021/01/08 02:01:04;;;;;;;34.22;21.67;;;2.90;1.00;;;;;;5093395;28;20099;-91
2021/01/08 02:03:52;;;;;;;34.85;22.67;;;2.50;1.00;;;;;;5094080;28;20024;-91
2021/01/08 02:06:21;;;;;;;31.40;21.13;;;2.50;1.00;;;;;;5094790;28;20035;-91
2021/01/08 02:08:55;;;;;;;33.47;22.48;;;2.70;1.00;;;;;;5094201;28;20032;-91
2021/01/08 02:11:26;;;;;;;33.35;23.40;;;2.40;1.00;;;;;;5093276;28;20423;-91
2021/01/08 02:14:05;;;;;;;33.00;22.10;;;2.30;1.00;;;;;;5093561;28;20024;-91
2021/01/08 02:16:33;;;;;;;32.45;20.85;;;2.20;1.00;;;;;;5105317;28;20023;-91
2021/01/08 02:19:00;;;;;;;32.85;21.58;;;2.30;1.00;;;;;;5113143;28;20024;-92
2021/01/08 02:21:42;;;;;;;34.50;21.48;;;2.00;1.00;;;;;;5113670;28;20027;-92
2021/01/08 02:24:19;;;;;;;38.53;24.35;;;1.90;1.00;;;;;;5110729;28;20531;-92
2021/01/08 02:26:45;;;;;;;40.58;23.27;;;1.90;1.00;;;;;;5110964;28;20023;-92
2021/01/08 02:29:12;;;;;;;39.45;24.23;;;1.90;1.00;;;;;;5113839;28;20034;-92
2021/01/08 02:31:38;;;;;;;38.45;23.48;;;2.00;1.00;;;;;;5113666;28;20037;-92
2021/01/08 02:34:05;;;;;;;35.63;23.52;;;1.70;1.00;;;;;;5113638;28;20020;-92
2021/01/08 02:36:35;;;;;;;38.67;24.58;;;1.70;1.00;;;;;;5110952;28;20036;-93
2021/01/08 02:39:00;;;;;;;35.30;23.33;;;1.70;1.00;;;;;;5113389;28;20016;-93
2021/01/08 02:41:27;;;;;;;38.38;23.80;;;2.30;1.00;;;;;;5113856;28;20434;-93
2021/01/08 02:43:53;;;;;;;35.22;22.75;;;2.20;1.00;;;;;;5113467;28;20024;-93
2021/01/08 02:46:19;;;;;;;35.40;23.00;;;1.70;1.00;;;;;;5113726;28;20027;-94
2021/01/08 02:48:44;;;;;;;36.28;22.60;;;1.20;1.00;;;;;;5113186;28;20072;-93
2021/01/08 02:51:10;;;;;;;35.88;22.60;;;1.80;1.00;;;;;;5110471;28;20032;-93
2021/01/08 02:53:38;;;;;;;33.92;22.17;;;1.50;1.00;;;;;;5092809;28;20177;-93
2021/01/08 02:56:31;;;;;;;33.88;21.92;;;2.00;1.00;;;;;;5093353;28;20024;-93
2021/01/08 02:58:58;;;;;;;35.97;22.15;;;1.40;1.00;;;;;;5092760;28;20027;-92
2021/01/08 03:01:24;;;;;;;33.92;21.20;;;1.80;1.00;;;;;;5092864;28;20058;-93
2021/01/08 03:03:50;;;;;;;34.28;21.60;;;1.40;1.00;;;;;;5092822;28;20020;-93
2021/01/08 03:06:16;;;;;;;34.90;21.30;;;1.40;1.00;;;;;;5092466;28;20058;-93
2021/01/08 03:08:42;;;;;;;33.55;21.10;;;1.50;1.00;;;;;;5093528;28;20038;-93
2021/01/08 03:11:10;;;;;;;33.30;21.33;;;1.90;1.00;;;;;;5093005;28;20388;-92
2021/01/08 03:13:38;;;;;;;34.45;22.17;;;1.60;1.00;;;;;;5092693;28;20026;-93
2021/01/08 03:16:04;;;;;;;33.88;21.33;;;1.60;1.00;;;;;;5093738;28;20051;-93
2021/01/08 03:18:30;;;;;;;34.35;20.90;;;1.50;1.00;;;;;;5092850;28;20023;-93
2021/01/08 03:20:56;;;;;;;32.40;20.65;;;1.50;1.00;;;;;;5092562;28;20028;-93
2021/01/08 03:23:21;;;;;;;34.28;21.50;;;1.60;1.00;;;;;;5092281;28;20048;-93
2021/01/08 03:25:47;;;;;;;32.85;22.17;;;1.50;1.00;;;;;;5093009;28;20028;-92
2021/01/08 03:28:13;;;;;;;32.17;21.27;;;1.40;1.00;;;;;;5092366;28;20056;-92
2021/01/08 03:30:38;;;;;;;33.60;21.77;;;1.60;1.00;;;;;;5095755;28;20039;-92
2021/01/08 03:33:04;;;;;;;31.33;21.10;;;1.60;1.00;;;;;;5097559;28;20503;-92
2021/01/08 03:35:30;;;;;;;36.63;21.83;;;1.40;1.00;;;;;;5097531;28;20028;-92
2021/01/08 03:37:55;;;;;;;34.88;22.08;;;1.30;1.00;;;;;;5096744;28;20073;-92
2021/01/08 03:40:21;;;;;;;36.60;22.08;;;1.30;1.00;;;;;;5106170;28;20064;-92
2021/01/08 03:42:47;;;;;;;36.28;22.92;;;1.30;1.00;;;;;;5117005;28;20023;-92
2021/01/08 03:45:12;;;;;;;46.35;26.35;;;1.40;1.00;;;;;;5110783;28;20035;-93
2021/01/08 03:47:38;;;;;;;46.55;27.15;;;1.40;1.00;;;;;;5096431;28;20036;-92
2021/01/08 03:50:04;;;;;;;38.63;24.30;;;1.30;1.00;;;;;;5096449;28;20027;-92
2021/01/08 03:52:29;;;;;;;37.08;22.80;;;1.30;1.00;;;;;;5097698;28;20020;-92
2021/01/08 03:54:55;;;;;;;36.95;23.55;;;1.30;1.00;;;;;;5096183;28;20032;-92
2021/01/08 03:57:21;;;;;;;39.20;24.58;;;1.60;1.00;;;;;;5096624;28;20020;-92
2021/01/08 03:59:46;;;;;;;38.05;24.70;;;1.20;1.00;;;;;;5096094;28;20086;-93
2021/01/08 04:02:12;;;;;;;36.78;23.35;;;1.20;1.00;;;;;;5096416;28;20024;-92
2021/01/08 04:04:38;;;;;;;35.20;22.38;;;1.60;1.00;;;;;;5096288;28;20031;-92
2021/01/08 04:07:04;;;;;;;35.15;22.27;;;1.30;1.00;;;;;;5096191;28;20049;-92
2021/01/08 04:09:30;;;;;;;35.75;22.60;;;1.40;1.00;;;;;;5096681;28;20063;-92
2021/01/08 04:11:55;;;;;;;34.88;21.98;;;1.50;1.00;;;;;;5096017;28;20030;-92
2021/01/08 04:14:21;;;;;;;33.75;22.17;;;1.60;1.00;;;;;;5095928;28;20032;-93
2021/01/08 04:16:47;;;;;;;36.53;23.08;;;1.80;1.00;;;;;;5095695;28;20020;-92
2021/01/08 04:19:12;;;;;;;34.85;21.88;;;1.40;1.00;;;;;;5095982;28;20024;-92
2021/01/08 04:21:38;;;;;;;33.72;22.02;;;1.60;1.00;;;;;;5097085;28;20374;-93
2021/01/08 04:24:05;;;;;;;34.78;22.55;;;1.70;1.00;;;;;;5112290;28;20070;-92
2021/01/08 04:26:31;;;;;;;34.63;22.77;;;1.80;1.00;;;;;;5116424;28;20090;-93
2021/01/08 04:28:57;;;;;;;36.38;23.95;;;2.00;1.00;;;;;;5116036;28;20027;-92
2021/01/08 04:31:24;;;;;;;35.25;23.13;;;2.10;1.00;;;;;;5115958;28;20041;-93
2021/01/08 04:33:49;;;;;;;34.60;22.30;;;2.00;1.00;;;;;;5116384;28;20110;-92
2021/01/08 04:36:15;;;;;;;35.53;22.70;;;2.30;1.00;;;;;;5115003;28;20165;-93
2021/01/08 04:38:41;;;;;;;38.88;22.88;;;2.10;1.00;;;;;;5115766;28;20027;-93
2021/01/08 04:41:07;;;;;;;36.15;23.30;;;2.00;1.00;;;;;;5115253;28;20019;-93
2021/01/08 04:43:34;;;;;;;34.60;22.05;;;2.00;1.00;;;;;;5115983;28;20427;-92
2021/01/08 04:46:09;;;;;;;35.30;23.05;;;2.40;1.00;;;;;;5116094;28;20024;-93
2021/01/08 04:48:35;;;;;;;39.60;24.42;;;2.30;1.00;;;;;;5116083;28;20051;-93
2021/01/08 04:51:04;;;;;;;40.30;25.33;;;2.20;1.00;;;;;;5114754;28;20488;-93
2021/01/08 04:53:33;;;;;;;40.42;23.92;;;2.30;1.00;;;;;;5115154;28;20027;-93
2021/01/08 04:56:05;;;;;;;34.15;22.67;;;2.30;1.00;;;;;;5111684;28;20031;-93
2021/01/08 04:58:32;;;;;;;39.72;23.83;;;2.30;1.00;;;;;;5104145;28;20021;-93
2021/01/08 05:00:59;;;;;;;37.28;23.67;;;2.30;1.00;;;;;;5095383;28;20573;-92
2021/01/08 05:03:25;;;;;;;35.00;22.88;;;2.50;1.00;;;;;;5094961;28;20028;-92
2021/01/08 05:05:51;;;;;;;37.00;23.40;;;2.80;1.00;;;;;;5094963;28;20502;-93
2021/01/08 05:08:16;;;;;;;35.05;22.98;;;2.60;1.00;;;;;;5094847;28;20028;-93
2021/01/08 05:10:43;;;;;;;36.08;23.02;;;2.40;1.00;;;;;;5094788;28;20077;-93
2021/01/08 05:13:09;;;;;;;38.35;23.52;;;2.40;1.00;;;;;;5095105;28;20043;-93
2021/01/08 05:15:34;;;;;;;40.92;23.90;;;2.50;1.00;;;;;;5094732;28;20020;-92
2021/01/08 05:18:01;;;;;;;45.33;25.50;;;2.50;1.00;;;;;;5094615;28;20032;-93
2021/01/08 05:20:26;;;;;;;42.25;25.00;;;2.50;1.00;;;;;;5094646;28;20020;-93
2021/01/08 05:22:52;;;;;;;43.17;24.77;;;2.30;1.00;;;;;;5099329;28;20585;-92
2021/01/08 05:25:18;;;;;;;43.08;23.65;;;2.60;1.00;;;;;;5094708;28;20020;-93
2021/01/08 05:27:43;;;;;;;45.38;25.58;;;2.40;1.00;;;;;;5094871;28;20024;-93
2021/01/08 05:30:27;;;;;;;46.97;26.83;;;2.80;1.00;;;;;;5094559;28;20020;-93
2021/01/08 05:33:01;;;;;;;48.67;26.05;;;2.30;1.00;;;;;;5095560;28;20059;-92
2021/01/08 05:35:32;;;;;;;49.03;26.88;;;2.40;1.00;;;;;;5094575;28;20035;-92
2021/01/08 05:38:04;;;;;;;50.60;26.52;;;2.30;1.00;;;;;;5113175;28;20044;-93
2021/01/08 05:40:30;;;;;;;45.60;26.33;;;2.40;1.00;;;;;;5114744;28;20024;-93
2021/01/08 05:42:57;;;;;;;49.58;27.25;;;2.70;1.00;;;;;;5114047;28;20160;-93
2021/01/08 05:45:24;;;;;;;47.90;27.35;;;2.40;1.00;;;;;;5125404;27;20027;-93
2021/01/08 05:47:51;;;;;;;49.70;26.35;;;2.80;1.00;;;;;;5114741;28;20019;-93
2021/01/08 05:50:20;;;;;;;51.55;27.50;;;2.80;1.00;;;;;;5112629;28;20072;-93
2021/01/08 05:52:50;;;;;;;45.28;25.52;;;2.40;1.00;;;;;;5113175;28;20023;-93
2021/01/08 05:55:16;;;;;;;47.10;26.17;;;2.50;1.00;;;;;;5114698;28;20028;-93
2021/01/08 05:57:42;;;;;;;47.13;27.15;;;2.50;1.00;;;;;;5114344;28;20026;-92
2021/01/08 06:00:09;;;;;;;48.05;26.80;;;2.50;1.00;;;;;;5114267;28;20028;-93
2021/01/08 06:02:36;;;;;;;46.70;26.08;;;2.50;1.00;;;;;;5114448;28;20065;-93
2021/01/08 06:05:05;;;;;;;46.97;26.80;;;2.60;1.00;;;;;;5109058;28;20027;-93
2021/01/08 06:07:36;;;;;;;46.33;27.20;;;2.40;1.00;;;;;;5093526;28;20020;-93
2021/01/08 06:10:05;;;;;;;45.90;27.17;;;2.40;1.00;;;;;;5094089;28;20024;-93
2021/01/08 06:12:42;;;;;;;44.47;25.52;;;2.30;1.00;;;;;;5093838;28;20020;-93
2021/01/08 06:15:11;;;;;;;47.05;26.45;;;2.50;1.00;;;;;;5093447;28;20020;-93
2021/01/08 06:17:38;;;;;;;45.08;25.55;;;2.40;1.00;;;;;;5093659;28;20020;-93
2021/01/08 06:20:06;;;;;;;46.45;26.75;;;2.40;1.00;;;;;;5093919;28;20024;-93
2021/01/08 06:22:39;;;;;;;48.05;27.17;;;2.50;1.00;;;;;;5093505;28;20473;-93
2021/01/08 06:25:06;;;;;;;46.38;26.08;;;2.70;1.00;;;;;;5093766;28;20500;-93
2021/01/08 06:27:33;;;;;;;45.35;25.90;;;2.50;1.00;;;;;;5093471;28;20028;-93
2021/01/08 06:30:01;;;;;;;49.90;26.98;;;2.90;1.00;;;;;;5093616;28;20102;-93
2021/01/08 06:32:31;;;;;;;48.17;27.33;;;2.60;1.00;;;;;;5093456;28;20031;-93
2021/01/08 06:35:08;;;;;;;47.67;27.17;;;2.70;1.00;;;;;;5093162;28;20028;-93
2021/01/08 06:37:41;;;;;;;44.00;26.38;;;2.60;1.00;;;;;;5093792;28;20028;-93
2021/01/08 06:40:12;;;;;;;46.78;26.25;;;3.00;1.00;;;;;;5093328;28;20407;-93
2021/01/08 06:42:45;;;;;;;47.13;28.45;;;2.70;1.00;;;;;;5093331;28;20020;-93
2021/01/08 06:45:16;;;;;;;52.42;28.35;;;3.20;1.00;;;;;;5093148;28;20424;-92
2021/01/08 06:47:48;;;;;;;47.67;27.80;;;2.70;1.00;;;;;;5093386;28;20481;-93
2021/01/08 06:50:24;;;;;;;53.28;29.52;;;2.70;1.00;;;;;;5108386;28;20094;-93
2021/01/08 06:52:49;;;;;;;50.25;29.25;;;2.80;1.00;;;;;;5113512;28;20370;-93
2021/01/08 06:55:17;;;;;;;52.70;29.92;;;2.60;1.00;;;;;;5113566;28;20027;-93
2021/01/08 06:57:52;;;;;;;55.97;32.03;;;2.70;1.00;;;;;;5113572;28;20388;-93
2021/01/08 07:00:26;;;;;;;54.40;30.95;;;2.70;1.00;;;;;;5113775;28;20084;-93
2021/01/08 07:02:55;;;;;;;55.90;31.52;;;2.90;1.00;;;;;;5109056;28;20033;-93
2021/01/08 07:05:21;;;;;;;55.88;29.95;;;2.90;1.00;;;;;;5092791;28;20024;-93
2021/01/08 07:07:48;;;;;;;52.65;29.13;;;2.80;1.00;;;;;;5093079;28;20024;-93
2021/01/08 07:10:19;;;;;;;57.35;32.63;;;3.20;1.00;;;;;;5094544;28;20508;-93
2021/01/08 07:12:45;;;;;;;52.80;31.35;;;2.80;1.00;;;;;;5113130;28;20457;-93
2021/01/08 07:15:12;;;;;;;57.38;34.00;;;3.20;1.00;;;;;;5113108;28;20026;-93
2021/01/08 07:17:39;;;;;;;58.63;33.17;;;2.90;1.00;;;;;;5113228;28;20065;-93
2021/01/08 07:20:06;;;;;;;50.05;28.95;;;2.80;1.00;;;;;;5098433;28;20032;-93
2021/01/08 07:22:36;;;;;;;50.40;29.38;;;2.80;1.00;;;;;;5092650;28;20055;-93
2021/01/08 07:25:05;;;;;;;52.28;30.85;;;2.90;1.00;;;;;;5092726;28;20052;-93
2021/01/08 07:27:33;;;;;;;52.50;30.80;;;2.90;1.00;;;;;;5092253;28;20074;-93
2021/01/08 07:30:09;;;;;;;49.90;30.00;;;2.70;1.00;;;;;;5092712;28;20047;-93
2021/01/08 07:32:47;;;;;;;53.70;31.48;;;2.80;1.00;;;;;;5092916;28;20035;-93
2021/01/08 07:35:22;;;;;;;63.03;35.95;;;2.90;1.00;;;;;;5091991;28;20111;-93
2021/01/08 07:38:08;;;;;;;60.10;33.90;;;2.80;1.00;;;;;;5092596;28;20068;-93
2021/01/08 07:40:33;;;;;;;60.15;32.35;;;2.90;1.00;;;;;;5092609;28;20477;-92
2021/01/08 07:43:03;;;;;;;54.83;31.33;;;2.90;1.00;;;;;;5092456;28;20077;-93
2021/01/08 07:45:57;;;;;;;49.58;29.05;;;3.00;1.00;;;;;;5092526;28;20111;-93
2021/01/08 07:48:40;;;;;;;57.22;28.98;;;2.70;1.00;;;;;;5092667;28;20028;-93
2021/01/08 07:51:13;;;;;;;51.47;28.98;;;3.00;1.00;;;;;;5089922;28;20038;-93
2021/01/08 07:53:47;;;;;;;53.15;29.60;;;2.80;1.00;;;;;;5092103;28;20024;-93
2021/01/08 07:56:53;;;;;;;50.95;29.05;;;2.90;1.00;;;;;;5092732;28;20505;-93
2021/01/08 07:59:28;;;;;;;52.97;28.48;;;2.90;1.00;;;;;;5092590;28;20024;-93
2021/01/08 08:01:54;;;;;;;53.83;31.23;;;3.00;1.00;;;;;;5092455;28;20035;-93
2021/01/08 08:04:22;;;;;;;51.95;31.27;;;3.10;1.00;;;;;;5095356;28;20028;-93
2021/01/08 08:06:49;;;;;;;58.03;32.35;;;3.40;1.00;;;;;;5092292;28;20036;-93
2021/01/08 08:09:16;;;;;;;62.90;35.58;;;3.00;1.00;;;;;;5092029;28;20024;-93
2021/01/08 08:11:42;;;;;;;57.13;32.60;;;3.30;1.00;;;;;;5092523;28;20085;-93
2021/01/08 08:14:14;;;;;;;59.42;32.85;;;3.00;1.00;;;;;;5092042;28;20110;-93
2021/01/08 08:16:41;;;;;;;57.25;31.00;;;3.50;1.00;;;;;;5093775;28;20031;-93
2021/01/08 08:19:14;;;;;;;60.10;32.17;;;3.30;1.00;;;;;;5095455;28;20020;-93
2021/01/08 08:21:50;;;;;;;55.92;31.05;;;3.30;1.00;;;;;;5095835;28;20474;-93
2021/01/08 08:24:17;;;;;;;52.78;30.10;;;3.30;1.00;;;;;;5095624;28;20044;-93
2021/01/08 08:26:44;;;;;;;57.63;32.65;;;3.30;1.00;;;;;;5095987;28;20028;-93
2021/01/08 08:29:14;;;;;;;54.78;30.92;;;3.30;1.00;;;;;;5095991;28;20028;-93
2021/01/08 08:31:50;;;;;;;55.70;31.95;;;3.30;1.00;;;;;;5095996;28;20035;-93
2021/01/08 08:34:29;;;;;;;53.50;29.52;;;3.30;1.00;;;;;;5105187;28;20028;-93
2021/01/08 08:37:07;;;;;;;52.60;30.98;;;3.30;1.00;;;;;;5099910;28;20028;-93
2021/01/08 08:39:33;;;;;;;56.03;31.60;;;3.20;1.00;;;;;;5095269;28;20377;-93
2021/01/08 08:41:59;;;;;;;52.90;30.02;;;3.40;1.00;;;;;;5095520;28;20020;-91
2021/01/08 08:44:24;;;;;;;53.35;30.17;;;3.50;1.00;;;;;;5095520;28;20028;-92
2021/01/08 08:46:55;;;;;;;53.55;29.83;;;3.60;1.00;;;;;;5095786;28;20536;-92
2021/01/08 08:49:24;;;;;;;50.40;29.23;;;4.10;1.00;;;;;;5095546;28;20066;-92
2021/01/08 08:51:52;;;;;;;50.13;28.95;;;3.60;1.00;;;;;;5095234;28;20054;-91
2021/01/08 08:54:18;;;;;;;50.40;29.50;;;3.50;1.00;;;;;;5094771;28;20102;-91
2021/01/08 08:56:55;;;;;;;55.30;29.60;;;3.40;1.00;;;;;;5095141;28;20024;-92
2021/01/08 08:59:35;;;;;;;52.00;29.92;;;3.50;1.00;;;;;;5095404;28;20081;-91
2021/01/08 09:02:01;;;;;;;54.05;29.77;;;3.50;1.00;;;;;;5095520;28;20024;-90
2021/01/08 09:04:27;;;;;;;51.60;30.13;;;3.60;1.00;;;;;;5095029;28;20035;-90
2021/01/08 09:06:58;;;;;;;45.63;28.15;;;4.20;1.00;;;;;;5094851;28;20093;-91
2021/01/08 09:09:27;;;;;;;51.40;28.88;;;3.50;1.00;;;;;;5094649;28;20028;-90
2021/01/08 09:12:03;;;;;;;51.80;28.58;;;3.70;1.00;;;;;;5096154;28;20032;-91
2021/01/08 09:14:31;;;;;;;55.30;30.75;;;3.50;1.00;;;;;;5094715;28;20031;-91
2021/01/08 09:17:03;;;;;;;48.35;29.25;;;4.00;1.00;;;;;;5109873;28;20035;-90
2021/01/08 09:19:47;;;;;;;51.72;29.98;;;3.60;1.00;;;;;;5115217;28;20077;-91
2021/01/08 09:22:15;;;;;;;46.05;27.10;;;3.80;1.00;;;;;;5115106;28;20039;-91
2021/01/08 09:24:43;;;;;;;49.30;28.95;;;4.00;1.00;;;;;;5109744;28;20040;-92
2021/01/08 09:27:10;;;;;;;49.05;28.95;;;3.70;1.00;;;;;;5114911;28;20031;-91
2021/01/08 09:29:37;;;;;;;51.15;29.02;;;3.80;1.00;;;;;;5115558;28;20023;-92
2021/01/08 09:32:04;;;;;;;49.90;28.92;;;4.00;1.00;;;;;;5115082;28;20038;-92
2021/01/08 09:34:31;;;;;;;47.20;28.98;;;3.80;1.00;;;;;;5114979;28;20038;-92
2021/01/08 09:36:59;;;;;;;46.97;27.95;;;3.80;1.00;;;;;;5114645;28;20049;-92
2021/01/08 09:39:29;;;;;;;49.63;28.40;;;4.20;1.00;;;;;;5113539;28;20123;-92
2021/01/08 09:41:55;;;;;;;48.10;28.60;;;3.70;1.00;;;;;;5114822;28;20055;-92
2021/01/08 09:44:30;;;;;;;48.83;27.88;;;4.10;1.00;;;;;;5114885;28;20049;-92
2021/01/08 09:46:58;;;;;;;47.45;27.35;;;3.80;1.00;;;;;;5114736;28;20034;-92
2021/01/08 09:49:52;;;;;;;50.45;28.60;;;3.90;1.00;;;;;;5114603;28;20027;-92
2021/01/08 09:52:27;;;;;;;50.67;30.65;;;3.90;1.00;;;;;;5111788;28;20110;-92
2021/01/08 09:54:53;;;;;;;47.92;29.25;;;4.00;1.00;;;;;;5101257;28;20067;-93
2021/01/08 09:57:26;;;;;;;46.60;28.33;;;4.40;1.00;;;;;;5108543;28;20484;-92
2021/01/08 10:00:06;;;;;;;49.92;29.40;;;4.60;1.00;;;;;;5114606;28;20024;-92
2021/01/08 10:02:38;;;;;;;46.75;28.45;;;4.00;1.00;;;;;;5114215;28;20024;-92
2021/01/08 10:05:28;;;;;;;46.22;27.70;;;4.00;1.00;;;;;;5113969;28;20032;-93
2021/01/08 10:07:55;;;;;;;46.13;27.25;;;4.00;1.00;;;;;;5109249;28;20054;-92
2021/01/08 10:10:27;;;;;;;46.13;27.73;;;4.30;1.00;;;;;;5099872;28;20446;-92
2021/01/08 10:12:54;;;;;;;48.58;27.30;;;3.80;1.00;;;;;;5102243;28;20027;-92
2021/01/08 10:15:49;;;;;;;49.47;29.00;;;4.00;1.00;;;;;;5112418;28;20433;-93
2021/01/08 10:18:32;;;;;;;49.28;27.25;;;3.80;1.00;;;;;;5093537;28;20020;-92
2021/01/08 10:21:07;;;;;;;47.92;28.30;;;4.40;1.00;;;;;;5093840;28;20034;-91
2021/01/08 10:23:41;;;;;;;45.40;27.35;;;4.20;1.00;;;;;;5094612;28;20040;-91
2021/01/08 10:26:16;;;;;;;48.00;28.58;;;4.10;1.00;;;;;;5094589;28;20034;-90
2021/01/08 10:28:52;;;;;;;45.72;27.13;;;4.20;1.00;;;;;;5094484;28;20430;-93
2021/01/08 10:31:19;;;;;;;45.38;28.08;;;4.20;1.00;;;;;;5093628;28;20028;-93
2021/01/08 10:33:45;;;;;;;45.05;26.50;;;4.60;1.00;;;;;;5094452;28;20024;-93
2021/01/08 10:36:11;;;;;;;46.88;27.58;;;4.20;1.00;;;;;;5093560;28;20031;-91
2021/01/08 10:38:36;;;;;;;43.78;26.08;;;4.30;1.00;;;;;;5093981;28;20020;-90
2021/01/08 10:41:02;;;;;;;46.45;27.15;;;4.30;1.00;;;;;;5103938;28;20054;-90
2021/01/08 10:43:32;;;;;;;89.93;54.75;;;4.20;1.00;;;;;;5093045;28;20016;-94
2021/01/08 10:45:59;;;;;;;62.45;41.22;;;4.40;1.00;;;;;;5092430;28;20401;-92
2021/01/08 10:48:25;;;;;;;37.72;23.65;;;4.50;1.00;;;;;;5092711;28;20100;-90
2021/01/08 10:50:50;;;;;;;40.90;26.20;;;4.30;1.00;;;;;;5092360;28;20485;-90
2021/01/08 10:53:16;;;;;;;73.07;42.20;;;4.20;1.00;;;;;;5092383;28;20481;-91
2021/01/08 10:55:46;;;;;;;40.67;24.17;;;4.60;1.00;;;;;;5096551;28;20501;-92
2021/01/08 10:58:11;;;;;;;39.08;23.85;;;4.30;1.00;;;;;;5113658;28;20016;-92
2021/01/08 11:00:37;;;;;;;43.88;28.80;;;4.40;1.00;;;;;;5114103;28;20176;-92
2021/01/08 11:03:03;;;;;;;42.63;27.83;;;4.40;1.00;;;;;;5114127;28;20012;-91
2021/01/08 11:05:30;;;;;;;44.15;29.63;;;4.30;1.00;;;;;;5113073;28;20027;-92
2021/01/08 11:07:55;;;;;;;37.75;23.95;;;4.30;1.00;;;;;;5112997;28;20082;-90
2021/01/08 11:10:21;;;;;;;39.45;24.27;;;4.50;1.00;;;;;;5097594;28;20032;-90
2021/01/08 11:12:47;;;;;;;40.53;24.23;;;4.50;1.00;;;;;;5100556;28;20449;-90
2021/01/08 11:15:13;;;;;;;39.70;23.30;;;4.60;1.00;;;;;;5113384;28;20034;-91
2021/01/08 11:17:38;;;;;;;39.63;23.08;;;4.80;1.00;;;;;;5092533;28;20024;-91
2021/01/08 11:20:05;;;;;;;40.33;23.55;;;4.50;1.00;;;;;;5093746;28;20477;-92
2021/01/08 11:22:31;;;;;;;39.88;24.20;;;4.30;1.00;;;;;;5091765;28;20073;-91
2021/01/08 11:24:56;;;;;;;41.67;24.60;;;4.30;1.00;;;;;;5093510;28;20032;-92
2021/01/08 11:27:22;;;;;;;37.78;23.92;;;4.30;1.00;;;;;;5092322;28;20035;-92
2021/01/08 11:29:48;;;;;;;38.78;23.25;;;4.40;1.00;;;;;;5092582;28;20564;-92
2021/01/08 11:32:13;;;;;;;41.25;23.38;;;4.40;1.00;;;;;;5091716;28;20409;-92
2021/01/08 11:34:39;;;;;;;39.22;23.20;;;4.70;1.00;;;;;;5092217;28;20115;-85
2021/01/08 11:37:06;;;;;;;37.85;22.92;;;4.60;1.00;;;;;;5092842;28;20020;-87
2021/01/08 11:39:32;;;;;;;39.33;24.38;;;4.30;1.00;;;;;;5091831;28;20035;-86
2021/01/08 11:41:58;;;;;;;39.83;24.13;;;4.60;1.00;;;;;;5093325;28;20020;-87
2021/01/08 11:44:24;;;;;;;107.50;70.68;;;4.50;1.00;;;;;;5092316;28;20366;-85
2021/01/08 11:46:50;;;;;;;49.45;31.45;;;4.30;1.00;;;;;;5092539;28;20024;-86
2021/01/08 11:49:17;;;;;;;41.03;25.30;;;4.40;1.00;;;;;;5094517;28;20034;-85
2021/01/08 11:51:44;;;;;;;40.22;23.95;;;4.50;1.00;;;;;;5097081;28;20035;-85
2021/01/08 11:54:09;;;;;;;42.30;26.13;;;4.50;1.00;;;;;;5096819;28;20043;-86
2021/01/08 11:56:35;;;;;;;38.53;23.85;;;4.40;1.00;;;;;;5096804;28;20017;-85
2021/01/08 11:59:28;;;;;;;39.03;23.98;;;4.50;1.00;;;;;;5106961;28;20063;-89
2021/01/08 12:02:03;;;;;;;42.67;24.90;;;4.60;1.00;;;;;;5115490;28;20027;-84
2021/01/08 12:04:30;;;;;;;41.58;24.45;;;4.90;1.00;;;;;;5117108;28;20080;-84
2021/01/08 12:06:58;;;;;;;40.78;24.38;;;4.70;1.00;;;;;;5113297;28;20028;-84
2021/01/08 12:09:24;;;;;;;39.85;24.42;;;4.80;1.00;;;;;;5097058;28;20034;-84
2021/01/08 12:12:01;;;;;;;40.90;24.80;;;4.70;1.00;;;;;;5096349;28;20102;-84
2021/01/08 12:14:27;;;;;;;43.38;25.15;;;4.70;1.00;;;;;;5094777;28;20449;-84
2021/01/08 12:16:53;;;;;;;40.30;24.40;;;4.70;1.00;;;;;;5110845;28;20023;-85
2021/01/08 12:19:19;;;;;;;39.75;24.73;;;4.80;1.00;;;;;;5115473;28;20024;-85
2021/01/08 12:21:49;;;;;;;40.42;24.65;;;4.80;1.00;;;;;;5113890;28;20072;-84
2021/01/08 12:24:15;;;;;;;39.95;24.95;;;4.80;1.00;;;;;;5096228;28;20409;-84
2021/01/08 12:26:41;;;;;;;39.63;24.30;;;4.80;1.00;;;;;;5096217;28;20028;-84
2021/01/08 12:29:08;;;;;;;38.78;24.20;;;4.90;1.00;;;;;;5094200;28;20115;-84
2021/01/08 12:31:34;;;;;;;40.20;24.05;;;4.90;1.00;;;;;;5096028;28;20028;-85
2021/01/08 12:34:00;;;;;;;42.78;24.25;;;4.90;1.00;;;;;;5095874;28;20032;-84
2021/01/08 12:36:26;;;;;;;39.60;24.08;;;5.00;1.00;;;;;;5095726;28;20024;-83
2021/01/08 12:38:52;;;;;;;34.75;22.73;;;5.00;1.00;;;;;;5112501;28;20023;-84
2021/01/08 12:41:18;;;;;;;43.35;24.27;;;5.00;1.00;;;;;;5116145;28;20012;-84
2021/01/08 12:43:45;;;;;;;39.35;24.33;;;5.10;1.00;;;;;;5116000;28;20172;-84
2021/01/08 12:46:12;;;;;;;40.47;24.73;;;5.30;1.00;;;;;;5114974;27;20015;-85
2021/01/08 12:48:38;;;;;;;40.60;24.10;;;5.30;1.00;;;;;;5116341;28;20477;-85
2021/01/08 12:51:04;;;;;;;39.92;23.67;;;5.30;1.00;;;;;;5114787;28;20023;-84
2021/01/08 12:53:30;;;;;;;39.60;24.20;;;5.20;1.00;;;;;;5096261;28;20035;-84
2021/01/08 12:55:55;;;;;;;37.65;24.23;;;5.10;1.00;;;;;;5095371;28;20024;-85